Time;durP1;ratioP1;P1;durP2;ratioP2;P2;SDS_P1;SDS_P2;PMS_P1;PMS_P2;Temp;Humidity;BMP_temperature;BMP_pressure;BME280_temperature;BME280_humidity;BME280_pressure;Samples;Min_cycle;Max_cycle;Signal;HPM_P1;HPM_P2
2024/04/19 00:01:38;;;;;;;1.27;0.30;;;12.20;88.70;;;;;;4244810;27;20095;-63
2024/04/19 00:03:39;;;;;;;0.20;0.20;;;12.20;89.00;;;;;;4237999;28;20078;-62
2024/04/19 00:05:40;;;;;;;0.63;0.30;;;12.20;89.40;;;;;;4243247;28;20438;-63
2024/04/19 00:07:41;;;;;;;0.20;0.20;;;12.10;89.60;;;;;;4250844;27;20433;-59
2024/04/19 00:09:42;;;;;;;0.45;0.40;;;12.20;89.10;;;;;;4248718;27;20047;-60
2024/04/19 00:11:43;;;;;;;0.20;0.10;;;12.20;89.80;;;;;;4243741;27;20055;-62
2024/04/19 00:13:44;;;;;;;0.45;0.45;;;12.20;89.20;;;;;;4255034;27;20122;-62
2024/04/19 00:15:46;;;;;;;1.73;0.40;;;12.20;89.80;;;;;;4243629;28;20092;-62
2024/04/19 00:17:48;;;;;;;0.43;0.43;;;12.20;90.00;;;;;;4248691;27;20050;-62
2024/04/19 00:19:49;;;;;;;0.95;0.40;;;12.30;89.70;;;;;;4249842;27;20051;-62
2024/04/19 00:21:50;;;;;;;0.68;0.20;;;12.20;89.90;;;;;;4225861;28;20040;-62
2024/04/19 00:23:51;;;;;;;0.38;0.30;;;12.20;90.10;;;;;;4243645;27;20058;-62
2024/04/19 00:25:53;;;;;;;0.30;0.17;;;12.20;89.90;;;;;;4248824;27;20043;-63
2024/04/19 00:27:54;;;;;;;0.00;0.00;;;12.10;90.20;;;;;;4244064;27;20052;-62
2024/04/19 00:29:56;;;;;;;0.10;0.10;;;12.10;90.20;;;;;;4239610;27;20058;-62
2024/04/19 00:31:57;;;;;;;0.65;0.20;;;12.10;89.60;;;;;;4248292;27;20455;-63
2024/04/19 00:33:59;;;;;;;0.68;0.47;;;12.10;89.20;;;;;;4236939;27;20562;-62
2024/04/19 00:36:01;;;;;;;0.25;0.25;;;12.20;89.90;;;;;;4247132;27;20050;-63
2024/04/19 00:38:02;;;;;;;0.20;0.20;;;12.10;88.70;;;;;;4246718;27;20046;-62
2024/04/19 00:40:04;;;;;;;0.38;0.35;;;12.00;89.10;;;;;;4242189;27;20046;-62
2024/04/19 00:42:26;;;;;;;0.30;0.22;;;12.00;89.10;;;;;;4233662;27;20047;-63
2024/04/19 00:44:30;;;;;;;1.13;1.02;;;12.00;89.10;;;;;;4243487;27;20097;-63
2024/04/19 00:46:32;;;;;;;0.22;0.20;;;12.00;89.50;;;;;;4248263;27;20173;-62
2024/04/19 00:48:33;;;;;;;0.32;0.32;;;12.00;89.10;;;;;;4235551;27;20048;-61
2024/04/19 00:50:37;;;;;;;0.10;0.10;;;11.90;88.70;;;;;;4238698;27;20063;-65
2024/04/19 00:52:39;;;;;;;0.98;0.90;;;12.00;88.40;;;;;;4247945;27;20051;-62
2024/04/19 00:54:40;;;;;;;1.25;0.32;;;11.90;88.60;;;;;;4236411;27;20097;-67
2024/04/19 00:56:42;;;;;;;0.65;0.32;;;11.90;89.50;;;;;;4246592;27;20486;-67
2024/04/19 00:58:43;;;;;;;0.65;0.30;;;11.80;89.60;;;;;;4245964;27;20043;-64
2024/04/19 01:00:45;;;;;;;0.50;0.30;;;11.80;89.70;;;;;;4237234;27;20407;-62
2024/04/19 01:02:46;;;;;;;0.68;0.35;;;11.80;89.50;;;;;;4248020;27;20416;-62
2024/04/19 01:04:47;;;;;;;0.45;0.20;;;11.80;89.50;;;;;;4238041;27;20112;-60
2024/04/19 01:06:50;;;;;;;1.08;0.73;;;11.80;90.20;;;;;;4244613;27;20058;-62
2024/04/19 01:08:51;;;;;;;8.07;0.32;;;11.80;90.10;;;;;;4246137;27;20105;-60
2024/04/19 01:10:53;;;;;;;1.00;0.40;;;11.80;89.60;;;;;;4236894;27;20063;-59
2024/04/19 01:13:10;;;;;;;0.50;0.50;;;11.80;90.00;;;;;;4266810;27;20130;-59
2024/04/19 01:15:15;;;;;;;0.17;0.17;;;11.80;89.60;;;;;;4240891;27;20066;-62
2024/04/19 01:17:16;;;;;;;0.65;0.20;;;11.80;89.50;;;;;;4245721;27;20043;-62
2024/04/19 01:19:17;;;;;;;0.25;0.10;;;11.80;89.90;;;;;;4245894;27;20465;-62
2024/04/19 01:21:19;;;;;;;0.82;0.30;;;11.80;89.80;;;;;;4235838;27;20043;-62
2024/04/19 01:23:22;;;;;;;0.10;0.10;;;11.80;89.70;;;;;;4247738;27;20112;-59
2024/04/19 01:25:29;;;;;;;0.88;0.25;;;11.70;89.00;;;;;;4242688;27;20182;-60
2024/04/19 01:27:32;;;;;;;0.30;0.20;;;11.70;89.40;;;;;;4233590;27;20330;-60
2024/04/19 01:29:35;;;;;;;0.10;0.10;;;11.70;89.20;;;;;;4231800;27;20043;-61
2024/04/19 01:31:36;;;;;;;0.43;0.20;;;11.80;88.80;;;;;;4223165;28;20045;-62
2024/04/19 01:33:37;;;;;;;0.43;0.20;;;11.80;89.30;;;;;;4230558;28;20398;-63
2024/04/19 01:35:39;;;;;;;0.50;0.40;;;11.70;89.90;;;;;;4237357;27;20459;-62
2024/04/19 01:37:40;;;;;;;0.17;0.10;;;11.70;90.10;;;;;;4235206;27;20141;-62
2024/04/19 01:39:41;;;;;;;1.17;0.25;;;11.80;90.00;;;;;;4231004;27;20470;-62
2024/04/19 01:41:43;;;;;;;0.10;0.10;;;11.80;89.80;;;;;;4241729;27;20047;-62
2024/04/19 01:43:45;;;;;;;0.30;0.30;;;11.80;90.20;;;;;;4230144;28;20051;-62
2024/04/19 01:45:47;;;;;;;3.03;0.68;;;11.80;90.40;;;;;;4236003;27;20051;-60
2024/04/19 01:47:48;;;;;;;0.20;0.20;;;11.80;90.20;;;;;;4236815;27;20048;-62
2024/04/19 01:49:49;;;;;;;0.38;0.38;;;11.80;89.80;;;;;;4230526;27;20044;-60
2024/04/19 01:51:50;;;;;;;0.90;0.40;;;11.70;89.70;;;;;;4242427;27;20038;-59
2024/04/19 01:53:51;;;;;;;0.38;0.30;;;11.80;90.00;;;;;;4230112;28;20048;-62
2024/04/19 01:55:55;;;;;;;2.92;0.90;;;11.70;90.10;;;;;;4234859;27;20516;-62
2024/04/19 01:57:56;;;;;;;1.38;0.22;;;11.70;90.20;;;;;;4238442;27;20120;-61
2024/04/19 01:59:59;;;;;;;0.47;0.28;;;11.90;90.50;;;;;;4230021;28;20399;-59
2024/04/19 02:02:00;;;;;;;0.52;0.52;;;11.90;90.20;;;;;;4242011;27;20047;-61
2024/04/19 02:04:02;;;;;;;0.60;0.43;;;11.80;90.40;;;;;;4230576;27;20052;-63
2024/04/19 02:06:07;;;;;;;0.60;0.13;;;11.80;90.60;;;;;;4232665;27;20039;-62
2024/04/19 02:08:08;;;;;;;0.93;0.20;;;11.90;90.70;;;;;;4239233;27;20043;-62
2024/04/19 02:10:09;;;;;;;0.55;0.40;;;11.90;90.70;;;;;;4230323;28;20065;-68
2024/04/19 02:12:32;;;;;;;0.35;0.20;;;11.90;90.80;;;;;;4246656;27;20048;-62
2024/04/19 02:14:34;;;;;;;0.35;0.20;;;11.90;90.60;;;;;;4247345;27;20097;-63
2024/04/19 02:16:36;;;;;;;3.72;0.38;;;11.90;90.80;;;;;;4242849;27;20096;-62
2024/04/19 02:18:37;;;;;;;0.45;0.10;;;11.80;90.70;;;;;;4238862;27;20046;-62
2024/04/19 02:20:39;;;;;;;0.20;0.20;;;11.90;91.00;;;;;;4246953;27;20550;-62
2024/04/19 02:22:40;;;;;;;0.65;0.47;;;11.90;91.00;;;;;;4239794;27;20604;-61
2024/04/19 02:24:41;;;;;;;0.50;0.50;;;11.90;90.80;;;;;;4246448;27;20043;-61
2024/04/19 02:26:42;;;;;;;0.10;0.10;;;11.90;90.90;;;;;;4243916;27;20094;-62
2024/04/19 02:31:03;;;;;;;0.20;0.10;;;11.80;91.00;;;;;;4244987;27;20534;-65
2024/04/19 02:33:05;;;;;;;0.90;0.85;;;11.80;91.00;;;;;;4241651;27;20043;-60
2024/04/19 02:35:06;;;;;;;0.32;0.25;;;11.80;90.90;;;;;;4229309;28;20059;-61
2024/04/19 02:37:08;;;;;;;0.47;0.28;;;11.80;91.30;;;;;;4232026;27;20048;-63
2024/04/19 02:39:11;;;;;;;0.52;0.20;;;11.70;91.20;;;;;;4239002;27;20039;-61
2024/04/19 02:41:12;;;;;;;0.65;0.35;;;11.80;91.10;;;;;;4233809;27;20150;-62
2024/04/19 02:43:16;;;;;;;0.10;0.10;;;11.80;91.20;;;;;;4235205;27;20590;-62
2024/04/19 02:45:17;;;;;;;0.10;0.10;;;11.80;91.10;;;;;;4244703;27;20393;-61
2024/04/19 02:47:18;;;;;;;0.22;0.22;;;11.70;91.40;;;;;;4243952;27;20050;-61
2024/04/19 02:49:21;;;;;;;0.13;0.10;;;11.70;91.40;;;;;;4235553;27;20452;-61
2024/04/19 02:51:22;;;;;;;0.70;0.28;;;11.80;91.60;;;;;;4245774;27;20448;-61
2024/04/19 02:53:23;;;;;;;0.50;0.20;;;11.70;91.70;;;;;;4237025;27;20329;-61
2024/04/19 02:55:24;;;;;;;4.43;0.20;;;11.70;91.70;;;;;;4243000;27;20047;-61
2024/04/19 02:57:26;;;;;;;0.40;0.40;;;11.80;91.70;;;;;;4244601;27;20051;-61
2024/04/19 02:59:27;;;;;;;2.35;0.20;;;11.80;91.70;;;;;;4217974;28;20118;-62
2024/04/19 03:01:28;;;;;;;0.32;0.17;;;11.70;91.80;;;;;;4246249;27;20055;-62
2024/04/19 03:03:30;;;;;;;0.47;0.20;;;11.70;91.80;;;;;;4238296;27;20478;-61
2024/04/19 03:05:32;;;;;;;0.95;0.10;;;11.60;91.90;;;;;;4240705;27;20077;-62
2024/04/19 03:07:33;;;;;;;0.22;0.22;;;11.70;92.10;;;;;;4244283;27;20081;-62
2024/04/19 03:09:35;;;;;;;0.60;0.60;;;11.60;92.00;;;;;;4234305;28;20043;-63
2024/04/19 03:11:36;;;;;;;0.85;0.43;;;11.60;92.00;;;;;;4245744;27;20430;-61
2024/04/19 03:13:52;;;;;;;0.10;0.10;;;11.60;92.20;;;;;;4239293;28;20482;-62
2024/04/19 03:16:02;;;;;;;0.63;0.47;;;11.60;92.10;;;;;;4241051;28;20132;-62
2024/04/19 03:18:04;;;;;;;0.77;0.40;;;11.70;92.20;;;;;;4244561;28;20103;-62
2024/04/19 03:20:06;;;;;;;0.20;0.20;;;11.60;92.20;;;;;;4234400;28;20039;-64
2024/04/19 03:22:09;;;;;;;0.20;0.20;;;11.60;92.30;;;;;;4246595;28;20043;-63
2024/04/19 03:24:10;;;;;;;1.23;0.52;;;11.50;92.20;;;;;;4242113;28;20076;-67
2024/04/19 03:26:11;;;;;;;0.30;0.17;;;11.40;92.40;;;;;;4234375;28;20043;-62
2024/04/19 03:28:12;;;;;;;1.00;0.60;;;11.40;92.40;;;;;;4230171;28;20466;-61
2024/04/19 03:30:23;;;;;;;0.45;0.40;;;11.50;92.20;;;;;;4240656;28;20050;-61
2024/04/19 03:32:25;;;;;;;1.17;0.32;;;11.50;92.30;;;;;;4228853;28;20056;-61
2024/04/19 03:34:26;;;;;;;0.10;0.10;;;11.40;92.10;;;;;;4235190;28;20092;-62
2024/04/19 03:36:27;;;;;;;0.32;0.17;;;11.40;92.50;;;;;;4234762;28;20051;-61
2024/04/19 03:38:30;;;;;;;0.52;0.20;;;11.40;92.30;;;;;;4229779;28;20044;-62
2024/04/19 03:40:31;;;;;;;0.50;0.50;;;11.40;92.30;;;;;;4240761;28;20055;-62
2024/04/19 03:42:58;;;;;;;0.50;0.50;;;11.40;92.40;;;;;;4232602;28;20047;-62
2024/04/19 03:47:20;;;;;;;0.60;0.20;;;11.40;92.20;;;;;;4230769;28;20096;-61
2024/04/19 03:49:22;;;;;;;0.20;0.10;;;11.30;92.40;;;;;;4229998;28;20040;-62
2024/04/19 03:51:23;;;;;;;0.30;0.30;;;11.30;92.10;;;;;;4239830;28;20061;-61
2024/04/19 03:53:24;;;;;;;0.30;0.30;;;11.50;92.30;;;;;;4228915;28;20039;-62
2024/04/19 03:55:26;;;;;;;0.82;0.40;;;11.40;92.00;;;;;;4237746;28;20043;-62
2024/04/19 03:57:27;;;;;;;1.90;1.38;;;11.30;92.20;;;;;;4232220;28;20040;-65
2024/04/19 03:59:28;;;;;;;0.60;0.30;;;11.20;91.90;;;;;;4233313;27;20047;-61
2024/04/19 04:01:30;;;;;;;0.82;0.50;;;11.20;91.90;;;;;;4243403;27;20036;-62
2024/04/19 04:03:31;;;;;;;0.30;0.20;;;11.30;92.20;;;;;;4231871;28;20298;-62
2024/04/19 04:05:32;;;;;;;1.20;1.05;;;11.20;91.70;;;;;;4238187;27;20042;-61
2024/04/19 04:07:33;;;;;;;0.43;0.43;;;11.30;92.00;;;;;;4237309;27;20501;-61
2024/04/19 04:09:35;;;;;;;0.13;0.13;;;11.30;91.80;;;;;;4232697;27;20051;-61
2024/04/19 04:11:37;;;;;;;2.17;0.40;;;11.20;91.70;;;;;;4243007;27;20481;-62
2024/04/19 04:13:52;;;;;;;0.50;0.38;;;11.20;91.80;;;;;;4233201;27;20047;-61
2024/04/19 04:15:53;;;;;;;0.10;0.10;;;11.10;91.80;;;;;;4243971;27;20043;-62
2024/04/19 04:17:54;;;;;;;0.35;0.35;;;11.10;91.90;;;;;;4237228;27;20052;-62
2024/04/19 04:19:55;;;;;;;0.30;0.30;;;11.10;92.00;;;;;;4232388;27;20492;-62
2024/04/19 04:21:57;;;;;;;0.75;0.20;;;11.30;92.10;;;;;;4243097;27;20500;-63
2024/04/19 04:23:58;;;;;;;3.05;1.17;;;11.30;91.90;;;;;;4248292;27;20043;-61
2024/04/19 04:25:59;;;;;;;0.45;0.35;;;11.30;91.80;;;;;;4243879;27;20397;-61
2024/04/19 04:28:03;;;;;;;1.85;0.40;;;11.30;91.90;;;;;;4238913;27;20047;-62
2024/04/19 04:30:05;;;;;;;0.52;0.20;;;11.30;92.10;;;;;;4231327;27;20040;-62
2024/04/19 04:32:07;;;;;;;0.60;0.60;;;11.10;91.70;;;;;;4243774;27;20054;-61
2024/04/19 04:34:08;;;;;;;1.95;0.57;;;11.10;92.10;;;;;;4214151;28;20055;-62
2024/04/19 04:36:09;;;;;;;2.30;0.65;;;11.10;92.30;;;;;;4234910;27;20047;-61
2024/04/19 04:38:11;;;;;;;1.00;0.30;;;11.00;92.20;;;;;;4240079;27;20509;-62
2024/04/19 04:40:12;;;;;;;0.47;0.47;;;11.00;92.50;;;;;;4231631;28;20513;-62
2024/04/19 04:42:19;;;;;;;1.48;0.65;;;11.10;92.40;;;;;;4243021;27;20064;-62
2024/04/19 04:44:22;;;;;;;0.85;0.20;;;11.00;92.40;;;;;;4248426;27;20047;-62
2024/04/19 04:46:23;;;;;;;0.20;0.20;;;11.00;92.70;;;;;;4245268;27;20104;-61
2024/04/19 04:48:24;;;;;;;0.75;0.25;;;11.00;93.00;;;;;;4237667;27;20055;-62
2024/04/19 04:50:25;;;;;;;1.95;0.93;;;11.00;92.80;;;;;;4248253;27;20047;-62
2024/04/19 04:52:27;;;;;;;0.40;0.40;;;11.00;92.80;;;;;;4237606;27;20043;-60
2024/04/19 04:54:29;;;;;;;0.30;0.20;;;10.90;92.80;;;;;;4245853;27;20111;-61
2024/04/19 04:56:30;;;;;;;0.22;0.20;;;11.00;92.90;;;;;;4246607;27;20042;-65
2024/04/19 04:58:32;;;;;;;3.50;0.93;;;11.00;92.80;;;;;;4236492;27;20047;-61
2024/04/19 05:00:36;;;;;;;0.43;0.20;;;11.00;92.90;;;;;;4247997;27;20076;-62
2024/04/19 05:02:37;;;;;;;0.10;0.10;;;11.00;92.90;;;;;;4238600;27;20054;-62
2024/04/19 05:04:42;;;;;;;0.30;0.20;;;11.00;92.90;;;;;;4243839;27;20046;-61
2024/04/19 05:06:43;;;;;;;0.20;0.20;;;10.90;93.30;;;;;;4246307;27;20039;-59
2024/04/19 05:08:44;;;;;;;0.32;0.20;;;10.90;93.30;;;;;;4236419;27;20043;-66
2024/04/19 05:10:45;;;;;;;0.32;0.20;;;11.00;93.20;;;;;;4247745;27;20043;-61
2024/04/19 05:13:01;;;;;;;16.17;0.65;;;11.10;93.10;;;;;;4239756;27;20055;-60
2024/04/19 05:15:04;;;;;;;1.00;0.80;;;11.10;93.00;;;;;;4244514;27;20469;-62
2024/04/19 05:17:06;;;;;;;1.38;0.20;;;11.00;92.80;;;;;;4246054;27;20071;-62
2024/04/19 05:19:07;;;;;;;1.63;1.23;;;11.10;93.00;;;;;;4219906;28;20116;-62
2024/04/19 05:21:09;;;;;;;1.15;0.20;;;11.10;92.90;;;;;;4248142;27;20058;-59
2024/04/19 05:23:10;;;;;;;0.57;0.40;;;11.00;93.00;;;;;;4246528;27;20043;-61
2024/04/19 05:25:11;;;;;;;0.90;0.70;;;11.00;92.80;;;;;;4235995;27;20055;-61
2024/04/19 05:27:12;;;;;;;0.25;0.20;;;10.90;93.10;;;;;;4231811;27;20043;-61
2024/04/19 05:29:13;;;;;;;1.23;0.17;;;10.90;93.10;;;;;;4241918;27;20043;-61
2024/04/19 05:31:14;;;;;;;1.65;1.25;;;10.90;93.20;;;;;;4230251;28;20040;-60
2024/04/19 05:33:17;;;;;;;0.00;0.00;;;10.90;93.10;;;;;;4235672;27;20084;-60
2024/04/19 05:35:18;;;;;;;0.77;0.40;;;10.90;93.20;;;;;;4237494;27;20054;-61
2024/04/19 05:37:19;;;;;;;0.17;0.17;;;11.00;93.20;;;;;;4230309;27;20101;-62
2024/04/19 05:39:20;;;;;;;1.08;0.45;;;11.00;93.20;;;;;;4243053;27;20050;-59
2024/04/19 05:41:22;;;;;;;0.10;0.10;;;10.90;93.30;;;;;;4233565;27;20183;-61
2024/04/19 05:43:55;;;;;;;0.30;0.30;;;11.00;93.30;;;;;;4248067;27;20111;-66
2024/04/19 05:45:57;;;;;;;0.20;0.20;;;10.90;93.20;;;;;;4242506;27;20058;-61
2024/04/19 05:47:58;;;;;;;0.80;0.52;;;11.00;93.30;;;;;;4245736;27;20047;-61
2024/04/19 05:50:00;;;;;;;0.08;0.08;;;11.00;93.30;;;;;;4235732;27;20508;-60
2024/04/19 05:52:02;;;;;;;0.10;0.10;;;11.00;93.20;;;;;;4247125;27;20108;-61
2024/04/19 05:54:03;;;;;;;0.85;0.20;;;11.00;93.10;;;;;;4240391;27;20042;-61
2024/04/19 05:56:05;;;;;;;0.82;0.77;;;11.00;93.20;;;;;;4223966;28;20043;-62
2024/04/19 05:58:06;;;;;;;0.40;0.20;;;11.00;93.20;;;;;;4246296;27;20557;-61
2024/04/19 06:00:08;;;;;;;0.57;0.57;;;10.80;93.20;;;;;;4234820;27;20048;-61
2024/04/19 06:02:09;;;;;;;1.67;0.50;;;10.90;93.50;;;;;;4246876;27;20401;-61
2024/04/19 06:04:10;;;;;;;0.80;0.22;;;10.90;93.70;;;;;;4225156;28;20075;-60
2024/04/19 06:06:12;;;;;;;1.02;0.85;;;11.00;93.60;;;;;;4221463;28;20052;-62
2024/04/19 06:08:14;;;;;;;0.43;0.28;;;10.90;93.40;;;;;;4247101;27;20051;-60
2024/04/19 06:10:15;;;;;;;0.10;0.10;;;11.00;93.40;;;;;;4234549;27;20040;-61
2024/04/19 06:12:37;;;;;;;1.50;0.60;;;11.00;93.60;;;;;;4232504;27;20408;-60
2024/04/19 06:14:38;;;;;;;1.00;0.45;;;11.00;93.50;;;;;;4234698;27;20035;-60
2024/04/19 06:16:40;;;;;;;0.73;0.20;;;10.90;93.50;;;;;;4237047;27;20398;-61
2024/04/19 06:18:41;;;;;;;0.20;0.20;;;11.00;93.60;;;;;;4229795;27;20047;-61
2024/04/19 06:20:42;;;;;;;0.10;0.10;;;11.10;93.60;;;;;;4241787;27;20055;-61
2024/04/19 06:22:45;;;;;;;0.25;0.20;;;11.10;93.40;;;;;;4235569;27;20039;-62
2024/04/19 06:24:46;;;;;;;1.08;0.85;;;11.10;93.80;;;;;;4242114;27;20046;-61
2024/04/19 06:26:47;;;;;;;0.85;0.30;;;11.00;93.50;;;;;;4238905;27;20051;-59
2024/04/19 06:28:49;;;;;;;1.55;0.43;;;11.10;93.60;;;;;;4229524;28;20044;-67
2024/04/19 06:30:50;;;;;;;0.22;0.22;;;11.20;93.70;;;;;;4240764;27;20062;-62
2024/04/19 06:32:54;;;;;;;0.43;0.25;;;11.10;93.30;;;;;;4229600;28;20390;-64
2024/04/19 06:34:55;;;;;;;0.90;0.57;;;11.10;93.70;;;;;;4233829;27;20128;-61
2024/04/19 06:36:57;;;;;;;0.25;0.22;;;11.10;93.90;;;;;;4235893;27;20047;-61
2024/04/19 06:39:02;;;;;;;1.48;0.60;;;11.10;93.60;;;;;;4246475;27;20100;-61
2024/04/19 06:41:04;;;;;;;1.10;1.02;;;11.20;93.50;;;;;;4235898;27;20130;-61
2024/04/19 06:43:09;;;;;;;0.68;0.55;;;11.10;93.50;;;;;;4227582;28;20523;-62
2024/04/19 06:45:10;;;;;;;0.68;0.30;;;11.20;93.70;;;;;;4244903;27;20047;-62
2024/04/19 06:47:11;;;;;;;0.30;0.30;;;11.20;93.60;;;;;;4235741;27;20046;-67
2024/04/19 06:49:13;;;;;;;0.32;0.25;;;11.20;93.50;;;;;;4246940;27;20063;-65
2024/04/19 06:51:14;;;;;;;0.40;0.20;;;11.20;93.70;;;;;;4237422;27;20098;-62
2024/04/19 06:53:15;;;;;;;4.97;1.75;;;11.10;93.80;;;;;;4242871;27;20051;-60
2024/04/19 06:55:17;;;;;;;1.65;0.10;;;11.10;93.70;;;;;;4243975;27;20051;-62
2024/04/19 06:57:19;;;;;;;0.68;0.68;;;11.20;93.90;;;;;;4240818;27;20063;-62
2024/04/19 06:59:20;;;;;;;0.20;0.20;;;11.20;93.60;;;;;;4229480;28;20055;-62
2024/04/19 07:01:21;;;;;;;0.55;0.30;;;11.30;93.60;;;;;;4235996;27;20134;-62
2024/04/19 07:03:23;;;;;;;0.30;0.30;;;11.20;93.90;;;;;;4236049;27;20044;-67
2024/04/19 07:05:26;;;;;;;1.05;0.50;;;11.20;93.80;;;;;;4230389;28;20040;-62
2024/04/19 07:07:27;;;;;;;0.22;0.15;;;11.30;93.90;;;;;;4244330;27;20043;-61
2024/04/19 07:09:28;;;;;;;0.93;0.82;;;11.30;93.80;;;;;;4229327;28;20040;-64
2024/04/19 07:11:33;;;;;;;2.40;0.75;;;11.30;93.80;;;;;;4234405;27;20100;-61
2024/04/19 07:13:34;;;;;;;1.00;0.25;;;11.20;93.90;;;;;;4235692;28;20441;-62
2024/04/19 07:15:35;;;;;;;0.68;0.20;;;11.20;94.20;;;;;;4229185;28;20039;-62
2024/04/19 07:17:37;;;;;;;0.60;0.20;;;11.10;94.00;;;;;;4242214;28;20044;-61
2024/04/19 07:19:38;;;;;;;0.30;0.13;;;11.10;94.20;;;;;;4246013;28;20039;-61
2024/04/19 07:21:39;;;;;;;0.43;0.30;;;11.20;94.30;;;;;;4242029;28;20449;-61
2024/04/19 07:23:43;;;;;;;0.73;0.45;;;11.30;94.30;;;;;;4243510;28;20046;-62
2024/04/19 07:25:44;;;;;;;0.85;0.47;;;11.30;94.20;;;;;;4246142;28;20050;-61
2024/04/19 07:27:47;;;;;;;0.32;0.32;;;11.30;94.10;;;;;;4233709;28;20102;-61
2024/04/19 07:29:48;;;;;;;1.60;0.50;;;11.30;94.10;;;;;;4245081;28;20043;-62
2024/04/19 07:31:49;;;;;;;0.10;0.10;;;11.40;94.50;;;;;;4239850;28;20043;-61
2024/04/19 07:33:51;;;;;;;0.28;0.22;;;11.30;94.10;;;;;;4242064;27;20127;-62
2024/04/19 07:35:52;;;;;;;2.65;0.40;;;11.40;94.20;;;;;;4232605;28;20063;-61
2024/04/19 07:37:53;;;;;;;2.53;0.93;;;11.40;94.10;;;;;;4241727;27;20051;-62
2024/04/19 07:39:54;;;;;;;0.22;0.22;;;11.50;94.20;;;;;;4235220;27;20040;-61
2024/04/19 07:41:56;;;;;;;0.15;0.10;;;11.50;94.20;;;;;;4233122;27;20449;-62
2024/04/19 07:43:59;;;;;;;1.55;0.80;;;11.50;94.40;;;;;;4243786;27;20561;-62
2024/04/19 07:46:01;;;;;;;0.98;0.20;;;11.60;94.30;;;;;;4232618;28;20570;-65
2024/04/19 07:48:02;;;;;;;0.20;0.20;;;11.60;94.00;;;;;;4240229;27;20413;-62
2024/04/19 07:50:04;;;;;;;3.30;1.50;;;11.70;94.00;;;;;;4236946;27;20051;-62
2024/04/19 07:52:05;;;;;;;0.77;0.40;;;11.60;94.10;;;;;;4233645;27;20654;-66
2024/04/19 07:54:07;;;;;;;0.20;0.20;;;11.60;94.10;;;;;;4243639;27;20116;-62
2024/04/19 07:56:08;;;;;;;0.38;0.20;;;11.70;94.10;;;;;;4231943;28;20497;-62
2024/04/19 07:58:10;;;;;;;0.20;0.20;;;11.80;94.00;;;;;;4237878;27;20039;-62
2024/04/19 08:00:16;;;;;;;0.70;0.20;;;11.80;93.90;;;;;;4238294;27;20043;-61
2024/04/19 08:02:17;;;;;;;1.73;0.93;;;11.80;94.00;;;;;;4232979;27;20044;-62
2024/04/19 08:04:19;;;;;;;1.75;1.13;;;12.00;94.20;;;;;;4243290;27;20047;-62
2024/04/19 08:06:20;;;;;;;1.67;0.73;;;12.10;93.90;;;;;;4215161;28;20532;-62
2024/04/19 08:08:21;;;;;;;0.57;0.20;;;12.20;93.80;;;;;;4236655;27;20423;-62
2024/04/19 08:10:24;;;;;;;0.45;0.45;;;12.20;93.70;;;;;;4222332;28;20109;-62
2024/04/19 08:12:25;;;;;;;2.35;1.30;;;12.20;93.40;;;;;;4231811;28;20051;-62
2024/04/19 08:14:27;;;;;;;1.17;0.82;;;12.30;93.80;;;;;;4244408;27;20047;-62
2024/04/19 08:16:29;;;;;;;0.55;0.20;;;12.40;93.60;;;;;;4231904;28;20043;-62
2024/04/19 08:18:30;;;;;;;1.05;0.45;;;12.30;93.30;;;;;;4235590;27;20065;-62
2024/04/19 08:20:31;;;;;;;0.40;0.38;;;12.20;93.60;;;;;;4239471;27;20088;-62
2024/04/19 08:22:32;;;;;;;1.35;0.60;;;12.20;93.70;;;;;;4248535;27;20466;-61
2024/04/19 08:24:33;;;;;;;0.30;0.30;;;12.30;93.70;;;;;;4244345;27;20046;-61
2024/04/19 08:26:35;;;;;;;0.20;0.20;;;12.30;93.70;;;;;;4233625;27;20054;-62
2024/04/19 08:28:36;;;;;;;0.20;0.20;;;12.40;93.70;;;;;;4232607;27;20145;-62
2024/04/19 08:30:37;;;;;;;0.50;0.20;;;12.50;93.60;;;;;;4242904;27;20051;-62
2024/04/19 08:32:39;;;;;;;0.65;0.63;;;12.40;94.00;;;;;;4231595;28;20051;-63
2024/04/19 08:34:41;;;;;;;0.40;0.20;;;12.30;94.00;;;;;;4240673;27;20504;-63
2024/04/19 08:36:42;;;;;;;0.63;0.63;;;12.40;94.00;;;;;;4235716;27;20051;-62
2024/04/19 08:38:43;;;;;;;3.65;1.05;;;12.40;93.60;;;;;;4232538;27;20065;-63
2024/04/19 08:40:55;;;;;;;1.50;0.20;;;12.20;93.80;;;;;;4243472;27;20071;-62
2024/04/19 08:42:59;;;;;;;0.20;0.20;;;12.30;93.90;;;;;;4231976;28;20423;-62
2024/04/19 08:45:06;;;;;;;2.55;0.85;;;12.30;94.00;;;;;;4244098;27;20497;-62
2024/04/19 08:47:10;;;;;;;2.75;0.80;;;12.30;93.90;;;;;;4234830;27;20043;-61
2024/04/19 08:49:15;;;;;;;0.47;0.20;;;12.40;94.10;;;;;;4232559;27;20043;-62
2024/04/19 08:51:18;;;;;;;2.28;0.40;;;12.40;94.10;;;;;;4242791;27;20289;-62
2024/04/19 08:53:19;;;;;;;0.88;0.40;;;12.40;93.70;;;;;;4231488;28;20051;-62
2024/04/19 08:55:22;;;;;;;0.50;0.20;;;12.40;93.80;;;;;;4240008;27;20043;-63
2024/04/19 08:57:26;;;;;;;0.22;0.20;;;12.40;94.00;;;;;;4235369;27;20046;-66
2024/04/19 08:59:30;;;;;;;5.82;1.05;;;12.40;94.40;;;;;;4232551;27;20185;-63
2024/04/19 09:01:31;;;;;;;0.20;0.20;;;12.40;94.10;;;;;;4242866;27;20538;-62
2024/04/19 09:03:33;;;;;;;0.32;0.32;;;12.40;94.30;;;;;;4231323;28;20099;-63
2024/04/19 09:05:38;;;;;;;1.10;0.75;;;12.30;93.90;;;;;;4238124;27;20092;-62
2024/04/19 09:07:40;;;;;;;0.57;0.22;;;12.40;94.20;;;;;;4235582;27;20055;-62
2024/04/19 09:09:42;;;;;;;0.10;0.10;;;12.50;94.20;;;;;;4231968;27;20052;-62
2024/04/19 09:11:49;;;;;;;0.30;0.20;;;12.60;94.40;;;;;;4242657;27;20559;-62
2024/04/19 09:13:50;;;;;;;1.00;0.40;;;12.50;94.00;;;;;;4230851;28;20043;-61
2024/04/19 09:15:52;;;;;;;6.38;0.90;;;12.50;94.20;;;;;;4238058;27;20047;-62
2024/04/19 09:17:53;;;;;;;2.13;0.60;;;12.60;94.10;;;;;;4236325;27;20058;-66
2024/04/19 09:19:56;;;;;;;0.60;0.20;;;12.60;94.20;;;;;;4232424;27;20047;-63
2024/04/19 09:22:00;;;;;;;1.15;0.20;;;12.50;94.30;;;;;;4242341;27;20065;-63
2024/04/19 09:24:01;;;;;;;0.50;0.30;;;12.60;94.60;;;;;;4230589;28;20047;-62
2024/04/19 09:26:03;;;;;;;0.65;0.20;;;12.70;94.20;;;;;;4236595;27;20035;-64
2024/04/19 09:28:05;;;;;;;1.35;0.68;;;12.70;94.40;;;;;;4237627;27;20478;-62
2024/04/19 09:30:08;;;;;;;0.63;0.30;;;12.60;94.30;;;;;;4230920;28;20043;-62
2024/04/19 09:32:11;;;;;;;2.97;0.75;;;12.60;94.30;;;;;;4242515;27;20512;-62
2024/04/19 09:34:15;;;;;;;1.52;0.40;;;12.60;94.40;;;;;;4230705;28;20055;-62
2024/04/19 09:36:18;;;;;;;0.95;0.68;;;12.70;94.40;;;;;;4234958;27;20043;-62
2024/04/19 09:38:21;;;;;;;1.42;0.88;;;12.70;94.30;;;;;;4237728;27;20052;-62
2024/04/19 09:40:25;;;;;;;0.35;0.30;;;12.70;94.40;;;;;;4230903;28;20468;-62
2024/04/19 09:42:46;;;;;;;0.43;0.30;;;12.70;94.40;;;;;;4243083;27;20159;-62
2024/04/19 09:44:50;;;;;;;1.35;0.50;;;12.80;94.30;;;;;;4230372;28;20047;-62
2024/04/19 09:46:55;;;;;;;0.40;0.30;;;12.80;94.50;;;;;;4236802;27;20046;-62
2024/04/19 09:48:58;;;;;;;;;;;12.80;94.30;;;;;;4236200;27;20047;-62
2024/04/19 09:51:04;;;;;;;0.75;0.50;;;12.80;94.30;;;;;;4231290;27;19920;-62
2024/04/19 09:53:14;;;;;;;1.30;0.85;;;12.80;94.60;;;;;;4241337;27;20440;-63
2024/04/19 09:55:22;;;;;;;5.47;0.30;;;12.80;94.50;;;;;;4230027;28;20043;-62
2024/04/19 09:57:24;;;;;;;0.90;0.38;;;12.90;94.40;;;;;;4222016;28;20111;-62
2024/04/19 09:59:26;;;;;;;1.02;0.52;;;12.80;94.40;;;;;;4234916;27;20050;-62
2024/04/19 10:01:28;;;;;;;2.15;1.02;;;12.80;94.60;;;;;;4231980;27;20381;-62
2024/04/19 10:03:29;;;;;;;1.05;0.95;;;12.90;94.40;;;;;;4241769;27;20058;-62
2024/04/19 10:05:31;;;;;;;0.75;0.40;;;13.00;94.40;;;;;;4230185;28;20108;-62
2024/04/19 10:07:32;;;;;;;1.95;1.00;;;13.00;94.10;;;;;;4236581;27;20565;-65
2024/04/19 10:09:35;;;;;;;9.10;0.57;;;13.10;94.30;;;;;;4236438;27;20137;-62
2024/04/19 10:11:49;;;;;;;0.93;0.28;;;13.30;94.30;;;;;;4216049;28;20048;-60
2024/04/19 10:13:50;;;;;;;0.43;0.43;;;13.20;94.10;;;;;;4242686;27;20039;-62
2024/04/19 10:15:51;;;;;;;1.35;0.30;;;13.20;94.10;;;;;;4231419;28;20047;-62
2024/04/19 10:17:52;;;;;;;0.20;0.20;;;13.30;94.60;;;;;;4236766;27;20112;-62
2024/04/19 10:19:54;;;;;;;0.30;0.20;;;13.30;94.10;;;;;;4236001;27;20043;-62
2024/04/19 10:21:56;;;;;;;0.17;0.17;;;13.40;94.10;;;;;;4213751;28;20040;-61
2024/04/19 10:23:57;;;;;;;2.22;0.93;;;13.40;94.10;;;;;;4244877;27;20042;-62
2024/04/19 10:26:01;;;;;;;0.88;0.50;;;13.40;94.00;;;;;;4229845;28;20048;-62
2024/04/19 10:28:06;;;;;;;1.38;1.05;;;13.40;93.70;;;;;;4234710;27;20039;-62
2024/04/19 10:30:11;;;;;;;0.60;0.30;;;13.30;93.90;;;;;;4236623;27;20043;-62
2024/04/19 10:32:18;;;;;;;2.00;0.98;;;13.30;94.00;;;;;;4229901;27;20044;-62
2024/04/19 10:34:21;;;;;;;0.52;0.50;;;13.20;94.00;;;;;;4243073;27;20397;-62
2024/04/19 10:36:28;;;;;;;0.98;0.52;;;13.20;94.10;;;;;;4246398;27;20046;-66
2024/04/19 10:38:30;;;;;;;0.30;0.30;;;13.30;94.40;;;;;;4240082;27;20073;-62
2024/04/19 10:40:31;;;;;;;1.27;0.75;;;13.30;94.10;;;;;;4240126;27;20044;-62
2024/04/19 10:43:03;;;;;;;0.65;0.40;;;13.40;94.20;;;;;;4234672;27;20035;-62
2024/04/19 10:45:11;;;;;;;1.50;0.75;;;13.40;94.30;;;;;;4234778;27;20400;-61